Time;durP1;ratioP1;P1;durP2;ratioP2;P2;SDS_P1;SDS_P2;PMS_P1;PMS_P2;Temp;Humidity;BMP_temperature;BMP_pressure;BME280_temperature;BME280_humidity;BME280_pressure;Samples;Min_cycle;Max_cycle;Signal;HPM_P1;HPM_P2
2023/01/29 00:04:37;;;;;;;;;;;17.00;48.40;;;;;;10210525;28;1914;-83
2023/01/29 00:09:32;;;;;;;;;;;17.00;48.30;;;;;;10210910;28;875;-82
2023/01/29 00:14:28;;;;;;;;;;;17.00;48.30;;;;;;10210286;28;863;-82
2023/01/29 00:19:23;;;;;;;;;;;17.00;48.30;;;;;;10209525;28;888;-82
2023/01/29 00:24:18;;;;;;;;;;;17.00;48.30;;;;;;10209817;28;1987;-82
2023/01/29 00:29:14;;;;;;;;;;;16.90;48.20;;;;;;10210313;28;873;-82
2023/01/29 00:34:09;;;;;;;;;;;16.90;48.30;;;;;;10210284;28;850;-82
2023/01/29 00:39:09;;;;;;;;;;;16.90;48.30;;;;;;10209333;28;813;-82
2023/01/29 00:49:18;;;;;;;;;;;16.90;48.20;;;;;;10208413;28;605;-82
2023/01/29 00:54:14;;;;;;;;;;;16.90;48.20;;;;;;10209930;28;932;-82
2023/01/29 00:59:09;;;;;;;;;;;16.90;48.10;;;;;;10208473;28;1130;-82
2023/01/29 01:04:05;;;;;;;;;;;16.90;48.10;;;;;;10207688;28;1910;-82
2023/01/29 01:14:17;;;;;;;;;;;16.90;48.20;;;;;;10208251;28;616;-78
2023/01/29 01:19:12;;;;;;;;;;;16.90;48.10;;;;;;10207830;28;797;-77
2023/01/29 01:24:07;;;;;;;;;;;16.90;48.20;;;;;;10207678;28;1914;-78
2023/01/29 01:29:03;;;;;;;;;;;16.90;48.20;;;;;;10207186;28;922;-77
2023/01/29 01:33:58;;;;;;;;;;;16.90;48.10;;;;;;10207219;28;924;-77
2023/01/29 01:38:54;;;;;;;;;;;16.90;48.10;;;;;;10206951;28;777;-78
2023/01/29 01:43:51;;;;;;;;;;;16.90;48.00;;;;;;10206777;28;1970;-77
2023/01/29 01:48:47;;;;;;;;;;;16.90;48.00;;;;;;10206069;28;885;-77
2023/01/29 01:53:43;;;;;;;;;;;16.80;48.00;;;;;;10206363;28;871;-78
2023/01/29 01:58:38;;;;;;;;;;;16.90;48.00;;;;;;10207112;28;1298;-77
2023/01/29 02:14:02;;;;;;;;;;;16.90;47.90;;;;;;10205251;28;612;-77
2023/01/29 02:18:57;;;;;;;;;;;16.90;47.90;;;;;;10205443;28;847;-78
2023/01/29 02:23:53;;;;;;;;;;;16.90;48.00;;;;;;10205310;28;2005;-78
2023/01/29 02:28:49;;;;;;;;;;;16.90;47.90;;;;;;10205265;28;956;-77
2023/01/29 02:33:44;;;;;;;;;;;16.90;47.80;;;;;;10205829;28;894;-78
2023/01/29 02:38:39;;;;;;;;;;;16.90;47.90;;;;;;10204881;28;814;-78
2023/01/29 02:43:35;;;;;;;;;;;16.90;47.90;;;;;;10204655;28;1902;-77
2023/01/29 02:48:30;;;;;;;;;;;16.90;47.90;;;;;;10204629;28;893;-77
2023/01/29 02:53:25;;;;;;;;;;;16.90;47.90;;;;;;10205123;28;810;-77
2023/01/29 02:58:21;;;;;;;;;;;16.80;47.80;;;;;;10204530;28;1141;-77
2023/01/29 03:03:16;;;;;;;;;;;16.80;47.80;;;;;;10204363;28;2013;-77
2023/01/29 03:08:12;;;;;;;;;;;16.80;47.80;;;;;;10204702;28;793;-77
2023/01/29 03:13:07;;;;;;;;;;;16.70;47.90;;;;;;10204619;28;831;-77
2023/01/29 03:18:03;;;;;;;;;;;16.70;48.00;;;;;;10203902;28;827;-77
2023/01/29 03:23:00;;;;;;;;;;;16.70;48.00;;;;;;10203712;28;1903;-77
2023/01/29 03:33:09;;;;;;;;;;;16.60;48.00;;;;;;10210061;28;680;-77
2023/01/29 03:38:04;;;;;;;;;;;16.60;48.10;;;;;;10211657;28;794;-77
2023/01/29 03:43:00;;;;;;;;;;;16.60;47.90;;;;;;10211931;28;1969;-77
2023/01/29 03:47:55;;;;;;;;;;;16.70;47.80;;;;;;10211356;28;952;-78
2023/01/29 03:52:51;;;;;;;;;;;16.70;47.70;;;;;;10212335;28;863;-77
2023/01/29 03:57:46;;;;;;;;;;;16.80;47.70;;;;;;10210422;28;891;-78
2023/01/29 04:02:41;;;;;;;;;;;16.80;47.60;;;;;;10210551;28;1914;-77
2023/01/29 04:07:37;;;;;;;;;;;16.80;47.60;;;;;;10210107;28;780;-77
2023/01/29 04:12:32;;;;;;;;;;;16.80;47.60;;;;;;10210989;28;790;-77
2023/01/29 04:17:28;;;;;;;;;;;16.70;47.80;;;;;;10210823;28;817;-77
2023/01/29 04:22:24;;;;;;;;;;;16.70;47.80;;;;;;10210606;28;767;-77
2023/01/29 04:27:20;;;;;;;;;;;16.70;47.80;;;;;;10210331;28;1898;-77
2023/01/29 04:32:15;;;;;;;;;;;16.70;47.70;;;;;;10210447;28;1015;-77
2023/01/29 04:37:10;;;;;;;;;;;16.70;47.80;;;;;;10209475;28;794;-77
2023/01/29 04:42:06;;;;;;;;;;;16.70;47.80;;;;;;10209226;28;786;-77
2023/01/29 04:47:01;;;;;;;;;;;16.70;47.80;;;;;;10209582;28;1964;-77
2023/01/29 04:51:56;;;;;;;;;;;16.70;47.70;;;;;;10208890;28;790;-77
2023/01/29 04:56:52;;;;;;;;;;;16.70;47.70;;;;;;10209453;28;866;-77
2023/01/29 05:01:47;;;;;;;;;;;16.70;47.70;;;;;;10207760;28;1295;-77
2023/01/29 05:06:45;;;;;;;;;;;16.70;47.60;;;;;;10208897;28;1973;-77
2023/01/29 05:11:40;;;;;;;;;;;16.70;47.60;;;;;;10208207;28;901;-77
2023/01/29 05:16:42;;;;;;;;;;;16.80;47.60;;;;;;10209329;28;877;-77
2023/01/29 05:21:38;;;;;;;;;;;16.70;47.50;;;;;;10207160;28;899;-77
2023/01/29 05:31:47;;;;;;;;;;;16.80;47.60;;;;;;10207034;28;608;-77
2023/01/29 05:36:43;;;;;;;;;;;16.80;47.50;;;;;;10207100;28;985;-77
2023/01/29 05:41:38;;;;;;;;;;;16.80;47.40;;;;;;10206988;28;870;-77
2023/01/29 05:46:33;;;;;;;;;;;16.80;47.40;;;;;;10206670;28;1973;-77
2023/01/29 05:51:29;;;;;;;;;;;16.80;47.40;;;;;;10206901;28;880;-77
2023/01/29 05:56:24;;;;;;;;;;;16.80;47.40;;;;;;10205981;28;766;-78
2023/01/29 06:01:19;;;;;;;;;;;16.80;47.40;;;;;;10206045;28;1312;-77
2023/01/29 06:06:15;;;;;;;;;;;16.80;47.30;;;;;;10206610;28;1977;-77
2023/01/29 06:11:10;;;;;;;;;;;16.80;47.40;;;;;;10205882;28;948;-77
2023/01/29 06:16:06;;;;;;;;;;;16.80;47.40;;;;;;10206305;28;1010;-77
2023/01/29 06:21:01;;;;;;;;;;;16.80;47.30;;;;;;10205884;28;865;-77
2023/01/29 06:25:56;;;;;;;;;;;16.80;47.40;;;;;;10205301;28;1954;-77
2023/01/29 06:30:52;;;;;;;;;;;16.80;47.40;;;;;;10206010;28;873;-77
2023/01/29 06:35:47;;;;;;;;;;;16.80;47.30;;;;;;10205058;28;759;-77
2023/01/29 06:40:43;;;;;;;;;;;16.80;47.30;;;;;;10204912;28;899;-77
2023/01/29 06:45:38;;;;;;;;;;;16.80;47.30;;;;;;10204723;28;1898;-82
2023/01/29 06:50:33;;;;;;;;;;;16.80;47.40;;;;;;10204612;28;877;-81
2023/01/29 06:55:29;;;;;;;;;;;16.80;47.30;;;;;;10205066;28;873;-82
2023/01/29 07:00:24;;;;;;;;;;;16.80;47.30;;;;;;10204896;28;1157;-81
2023/01/29 07:05:19;;;;;;;;;;;16.80;47.40;;;;;;10203365;28;1980;-82
2023/01/29 07:10:15;;;;;;;;;;;16.70;47.30;;;;;;10204771;28;860;-81
2023/01/29 07:15:11;;;;;;;;;;;16.70;47.30;;;;;;10205203;28;964;-80
2023/01/29 07:20:06;;;;;;;;;;;16.80;47.30;;;;;;10204719;28;887;-81
2023/01/29 07:25:02;;;;;;;;;;;16.80;47.40;;;;;;10204363;28;1923;-79
2023/01/29 07:29:57;;;;;;;;;;;16.80;47.30;;;;;;10204134;28;960;-81
2023/01/29 07:34:53;;;;;;;;;;;16.80;47.40;;;;;;10204363;28;903;-80
2023/01/29 07:39:48;;;;;;;;;;;16.80;47.30;;;;;;10202997;28;885;-81
2023/01/29 07:44:44;;;;;;;;;;;16.70;47.30;;;;;;10204030;28;1906;-80
2023/01/29 07:49:39;;;;;;;;;;;16.80;47.30;;;;;;10203425;28;872;-74
2023/01/29 07:54:37;;;;;;;;;;;17.20;47.00;;;;;;10203925;28;901;-74
2023/01/29 07:59:32;;;;;;;;;;;17.10;47.40;;;;;;10203337;28;1126;-74
2023/01/29 08:04:28;;;;;;;;;;;17.20;47.40;;;;;;10203101;28;1919;-75
2023/01/29 08:09:23;;;;;;;;;;;17.20;47.30;;;;;;10202421;28;821;-76
2023/01/29 08:14:18;;;;;;;;;;;17.30;47.30;;;;;;10202863;28;808;-76
2023/01/29 08:19:14;;;;;;;;;;;17.30;47.30;;;;;;10208929;28;795;-76
2023/01/29 08:24:09;;;;;;;;;;;17.30;47.40;;;;;;10209933;28;1902;-76
2023/01/29 08:29:05;;;;;;;;;;;17.20;47.20;;;;;;10209850;28;802;-76
2023/01/29 08:34:00;;;;;;;;;;;17.20;47.10;;;;;;10209711;28;797;-77
2023/01/29 08:38:55;;;;;;;;;;;17.30;47.00;;;;;;10209350;28;949;-76
2023/01/29 08:43:53;;;;;;;;;;;17.30;47.00;;;;;;10209973;28;1958;-76
2023/01/29 08:48:49;;;;;;;;;;;17.30;47.00;;;;;;10209148;28;790;-77
2023/01/29 08:53:44;;;;;;;;;;;17.30;47.10;;;;;;10208343;28;920;-77
2023/01/29 08:58:39;;;;;;;;;;;17.30;47.30;;;;;;10208334;28;1458;-77
2023/01/29 09:03:35;;;;;;;;;;;17.30;47.50;;;;;;10208433;28;1918;-77
2023/01/29 09:08:30;;;;;;;;;;;17.30;47.90;;;;;;10208285;28;925;-76
2023/01/29 09:13:25;;;;;;;;;;;17.30;48.00;;;;;;10208129;28;891;-70
2023/01/29 09:18:21;;;;;;;;;;;17.30;48.10;;;;;;10208079;28;967;-76
2023/01/29 09:23:16;;;;;;;;;;;17.30;48.10;;;;;;10207677;28;1956;-76
2023/01/29 09:28:11;;;;;;;;;;;17.30;48.00;;;;;;10206804;28;936;-79
2023/01/29 09:33:07;;;;;;;;;;;17.30;47.90;;;;;;10207481;28;921;-78
2023/01/29 09:38:02;;;;;;;;;;;17.20;47.40;;;;;;10207116;28;787;-76
2023/01/29 09:42:58;;;;;;;;;;;17.30;46.90;;;;;;10206698;28;1906;-76
2023/01/29 09:47:53;;;;;;;;;;;17.30;46.80;;;;;;10207082;28;860;-76
2023/01/29 09:52:48;;;;;;;;;;;17.30;46.90;;;;;;10206346;28;800;-76
2023/01/29 09:57:44;;;;;;;;;;;17.20;47.10;;;;;;10206939;28;857;-76
2023/01/29 10:02:39;;;;;;;;;;;17.30;46.80;;;;;;10204602;28;1255;-77
2023/01/29 10:07:34;;;;;;;;;;;17.30;46.60;;;;;;10205705;28;1906;-76
2023/01/29 10:12:30;;;;;;;;;;;17.40;46.20;;;;;;10206368;28;798;-76
2023/01/29 10:17:25;;;;;;;;;;;17.30;46.40;;;;;;10204860;28;1300;-73
2023/01/29 10:22:21;;;;;;;;;;;17.30;46.40;;;;;;10205274;28;874;-76
2023/01/29 10:27:16;;;;;;;;;;;17.30;46.50;;;;;;10205070;28;1969;-77
2023/01/29 10:32:11;;;;;;;;;;;17.20;46.50;;;;;;10204316;28;975;-77
2023/01/29 10:37:07;;;;;;;;;;;17.20;46.60;;;;;;10205432;28;918;-77
2023/01/29 10:42:04;;;;;;;;;;;17.30;46.40;;;;;;10204492;28;770;-76
2023/01/29 10:46:59;;;;;;;;;;;17.30;46.20;;;;;;10203692;28;1890;-76
2023/01/29 10:51:55;;;;;;;;;;;17.30;46.10;;;;;;10204360;28;863;-76
2023/01/29 10:56:50;;;;;;;;;;;17.30;45.90;;;;;;10203563;28;1268;-77
2023/01/29 11:01:45;;;;;;;;;;;17.30;46.20;;;;;;10204862;28;1221;-76
2023/01/29 11:06:41;;;;;;;;;;;17.30;46.00;;;;;;10203895;28;1902;-76
2023/01/29 11:11:36;;;;;;;;;;;17.30;46.00;;;;;;10203800;28;853;-76
2023/01/29 11:16:32;;;;;;;;;;;17.30;46.10;;;;;;10204351;28;925;-76
2023/01/29 11:21:27;;;;;;;;;;;17.20;46.20;;;;;;10203545;28;838;-76
2023/01/29 11:26:23;;;;;;;;;;;17.30;46.30;;;;;;10204139;28;1902;-77
2023/01/29 11:31:18;;;;;;;;;;;17.20;45.90;;;;;;10203475;28;799;-77
2023/01/29 11:36:13;;;;;;;;;;;17.20;46.00;;;;;;10203524;28;798;-77
2023/01/29 11:41:09;;;;;;;;;;;17.30;46.00;;;;;;10203857;28;809;-77
2023/01/29 11:46:04;;;;;;;;;;;17.30;46.10;;;;;;10203931;28;1969;-77
2023/01/29 11:50:59;;;;;;;;;;;17.30;45.90;;;;;;10205181;28;886;-77
2023/01/29 11:55:55;;;;;;;;;;;17.20;45.70;;;;;;10211596;28;964;-77
2023/01/29 12:00:50;;;;;;;;;;;17.30;45.70;;;;;;10210259;28;1260;-78
2023/01/29 12:05:46;;;;;;;;;;;17.20;45.50;;;;;;10210505;28;1977;-77
2023/01/29 12:10:41;;;;;;;;;;;17.30;45.60;;;;;;10210821;28;869;-77
2023/01/29 12:15:36;;;;;;;;;;;17.20;45.60;;;;;;10210689;28;1540;-77
2023/01/29 12:20:32;;;;;;;;;;;17.20;45.60;;;;;;10211136;28;883;-76
2023/01/29 12:25:27;;;;;;;;;;;17.30;45.50;;;;;;10209038;28;1898;-76
2023/01/29 12:30:22;;;;;;;;;;;17.20;45.40;;;;;;10209529;28;792;-77
2023/01/29 12:35:18;;;;;;;;;;;17.30;45.60;;;;;;10209354;28;802;-77
2023/01/29 12:40:13;;;;;;;;;;;17.30;45.50;;;;;;10209044;28;911;-76
2023/01/29 12:45:09;;;;;;;;;;;17.30;45.70;;;;;;10209447;28;1894;-75
2023/01/29 12:50:05;;;;;;;;;;;17.30;45.60;;;;;;10208827;28;849;-76
2023/01/29 12:55:00;;;;;;;;;;;17.30;45.60;;;;;;10208609;28;755;-77
2023/01/29 12:59:55;;;;;;;;;;;17.40;45.50;;;;;;10208610;28;1344;-77
2023/01/29 13:04:51;;;;;;;;;;;17.40;45.60;;;;;;10207599;28;1975;-77
2023/01/29 13:09:46;;;;;;;;;;;17.40;45.70;;;;;;10208729;28;845;-77
2023/01/29 13:14:42;;;;;;;;;;;17.40;45.70;;;;;;10207872;28;908;-77
2023/01/29 13:19:37;;;;;;;;;;;17.40;45.80;;;;;;10208535;28;848;-77
2023/01/29 13:24:32;;;;;;;;;;;17.40;45.70;;;;;;10208001;28;2042;-79
2023/01/29 13:29:28;;;;;;;;;;;17.40;46.10;;;;;;10207023;28;958;-78
2023/01/29 13:34:23;;;;;;;;;;;17.40;46.00;;;;;;10207145;28;985;-78
2023/01/29 13:39:18;;;;;;;;;;;17.50;46.90;;;;;;10206845;28;887;-78
2023/01/29 13:44:14;;;;;;;;;;;17.60;46.80;;;;;;10207435;28;1898;-80
2023/01/29 13:49:09;;;;;;;;;;;17.50;46.50;;;;;;10207342;28;995;-78
2023/01/29 13:54:04;;;;;;;;;;;17.50;47.00;;;;;;10206933;28;752;-79
2023/01/29 13:59:00;;;;;;;;;;;17.50;47.00;;;;;;10206155;28;1179;-77
2023/01/29 14:03:55;;;;;;;;;;;17.40;46.80;;;;;;10205969;28;1910;-77
2023/01/29 14:08:51;;;;;;;;;;;17.40;46.70;;;;;;10206348;28;770;-77
2023/01/29 14:13:46;;;;;;;;;;;17.40;46.60;;;;;;10205219;28;776;-78
2023/01/29 14:18:41;;;;;;;;;;;17.30;46.50;;;;;;10205561;28;877;-78
2023/01/29 14:23:40;;;;;;;;;;;17.40;46.60;;;;;;10204637;28;1898;-78
2023/01/29 14:28:35;;;;;;;;;;;17.40;46.50;;;;;;10205805;28;795;-78
2023/01/29 14:33:30;;;;;;;;;;;17.40;46.40;;;;;;10204950;28;778;-78
2023/01/29 14:38:26;;;;;;;;;;;17.40;46.40;;;;;;10204758;28;873;-78
2023/01/29 14:43:21;;;;;;;;;;;17.40;47.50;;;;;;10205116;28;1950;-78
2023/01/29 14:48:17;;;;;;;;;;;17.30;46.70;;;;;;10204430;28;1039;-78
2023/01/29 14:53:12;;;;;;;;;;;17.40;46.80;;;;;;10204234;28;874;-78
2023/01/29 14:58:07;;;;;;;;;;;17.40;47.00;;;;;;10203861;28;1403;-78
2023/01/29 15:03:03;;;;;;;;;;;17.40;46.70;;;;;;10204500;28;1910;-78
2023/01/29 15:07:58;;;;;;;;;;;17.40;46.50;;;;;;10203916;28;893;-78
2023/01/29 15:12:53;;;;;;;;;;;17.30;46.40;;;;;;10203875;28;812;-78
2023/01/29 15:17:49;;;;;;;;;;;17.30;46.10;;;;;;10204324;28;794;-78
2023/01/29 15:22:44;;;;;;;;;;;17.30;46.10;;;;;;10204339;28;807;-78
2023/01/29 15:27:39;;;;;;;;;;;17.30;45.80;;;;;;10207718;28;1898;-78
2023/01/29 15:32:35;;;;;;;;;;;17.30;45.70;;;;;;10211749;28;781;-80
2023/01/29 15:37:30;;;;;;;;;;;17.30;45.50;;;;;;10212513;28;885;-77
2023/01/29 15:42:26;;;;;;;;;;;17.30;45.30;;;;;;10211003;28;1088;-79
2023/01/29 15:47:21;;;;;;;;;;;17.20;45.30;;;;;;10211403;28;1906;-79
2023/01/29 15:52:16;;;;;;;;;;;17.30;45.30;;;;;;10211932;28;821;-79
2023/01/29 15:57:12;;;;;;;;;;;17.30;45.20;;;;;;10211720;28;961;-78
2023/01/29 16:02:07;;;;;;;;;;;17.30;45.30;;;;;;10210718;28;1528;-79
2023/01/29 16:07:03;;;;;;;;;;;17.20;45.10;;;;;;10210698;28;1968;-78
2023/01/29 16:11:58;;;;;;;;;;;17.20;45.40;;;;;;10211705;28;861;-78
2023/01/29 16:16:53;;;;;;;;;;;17.20;45.00;;;;;;10210991;28;902;-78
2023/01/29 16:21:49;;;;;;;;;;;17.20;45.00;;;;;;10210682;28;933;-78
2023/01/29 16:26:44;;;;;;;;;;;17.10;44.60;;;;;;10209895;28;2026;-78
2023/01/29 16:31:40;;;;;;;;;;;17.10;44.40;;;;;;10209108;28;952;-77
2023/01/29 16:36:35;;;;;;;;;;;17.00;44.30;;;;;;10209658;28;903;-76
2023/01/29 16:41:30;;;;;;;;;;;17.00;44.40;;;;;;10209501;28;762;-79
2023/01/29 16:46:26;;;;;;;;;;;17.00;44.30;;;;;;10191932;28;1910;-79
2023/01/29 16:51:21;;;;;;;;;;;17.00;44.30;;;;;;10209038;28;946;-78
2023/01/29 16:56:17;;;;;;;;;;;17.00;44.30;;;;;;10208312;28;908;-77
2023/01/29 17:01:12;;;;;;;;;;;16.90;44.30;;;;;;10177405;28;1791;-75
2023/01/29 17:06:07;;;;;;;;;;;16.90;44.40;;;;;;10169169;28;1975;-79
2023/01/29 17:11:03;;;;;;;;;;;16.90;44.50;;;;;;10167897;28;913;-79
2023/01/29 17:15:58;;;;;;;;;;;16.80;44.00;;;;;;10168214;28;775;-79
2023/01/29 17:20:53;;;;;;;;;;;16.90;44.10;;;;;;10167778;28;870;-79
2023/01/29 17:25:49;;;;;;;;;;;16.90;44.10;;;;;;10167058;28;1898;-79
2023/01/29 17:30:44;;;;;;;;;;;16.90;44.10;;;;;;10167411;28;802;-78
2023/01/29 17:35:41;;;;;;;;;;;17.00;43.80;;;;;;10168071;28;888;-78
2023/01/29 17:40:36;;;;;;;;;;;17.00;44.00;;;;;;10167576;28;842;-79
2023/01/29 17:45:31;;;;;;;;;;;17.00;43.80;;;;;;10167404;28;1906;-79
2023/01/29 17:50:27;;;;;;;;;;;16.90;43.80;;;;;;10166209;28;921;-79
2023/01/29 17:55:22;;;;;;;;;;;16.90;43.70;;;;;;10167073;28;763;-79
2023/01/29 18:00:17;;;;;;;;;;;17.00;43.60;;;;;;10166260;28;1993;-80
2023/01/29 18:05:13;;;;;;;;;;;17.00;43.60;;;;;;10165977;28;1918;-80
2023/01/29 18:10:08;;;;;;;;;;;17.00;43.70;;;;;;10165853;28;835;-78
2023/01/29 18:15:04;;;;;;;;;;;17.00;43.70;;;;;;10166903;28;889;-78
2023/01/29 18:19:59;;;;;;;;;;;16.90;43.60;;;;;;10165524;28;822;-78
2023/01/29 18:24:54;;;;;;;;;;;17.00;43.60;;;;;;10165235;28;1982;-78
2023/01/29 18:29:50;;;;;;;;;;;17.00;43.50;;;;;;10165560;28;878;-78
2023/01/29 18:34:45;;;;;;;;;;;17.10;43.50;;;;;;10165882;28;921;-78
2023/01/29 18:39:40;;;;;;;;;;;17.20;43.70;;;;;;10164859;28;796;-77
2023/01/29 18:44:36;;;;;;;;;;;17.20;43.50;;;;;;10165101;28;1914;-78
2023/01/29 18:49:31;;;;;;;;;;;17.20;43.50;;;;;;10164547;28;772;-78
2023/01/29 18:54:28;;;;;;;;;;;17.20;43.80;;;;;;10164460;28;1039;-78
2023/01/29 18:59:23;;;;;;;;;;;17.20;43.90;;;;;;10164365;28;1091;-85
2023/01/29 19:04:19;;;;;;;;;;;17.20;43.70;;;;;;10164704;28;1919;-80
2023/01/29 19:09:15;;;;;;;;;;;17.00;43.80;;;;;;10164825;28;868;-77
2023/01/29 19:14:10;;;;;;;;;;;16.80;43.50;;;;;;10164813;28;844;-78
2023/01/29 19:19:05;;;;;;;;;;;16.80;43.70;;;;;;10164702;28;870;-78
2023/01/29 19:24:01;;;;;;;;;;;16.70;43.70;;;;;;10163929;28;1898;-76
2023/01/29 19:28:56;;;;;;;;;;;16.80;43.40;;;;;;10163855;28;889;-76
2023/01/29 19:33:51;;;;;;;;;;;16.80;43.60;;;;;;10163821;28;799;-76
2023/01/29 19:38:47;;;;;;;;;;;16.70;44.00;;;;;;10163728;28;977;-76
2023/01/29 19:43:44;;;;;;;;;;;16.70;43.80;;;;;;10163548;28;1974;-76
2023/01/29 19:48:40;;;;;;;;;;;16.80;44.00;;;;;;10163553;28;942;-76
2023/01/29 19:53:35;;;;;;;;;;;16.70;44.30;;;;;;10163477;28;905;-76
2023/01/29 19:58:30;;;;;;;;;;;16.70;44.20;;;;;;10163197;28;1147;-77
2023/01/29 20:03:26;;;;;;;;;;;16.70;44.00;;;;;;10163943;28;1914;-76
2023/01/29 20:08:22;;;;;;;;;;;16.70;44.10;;;;;;10163220;28;833;-76
2023/01/29 20:13:18;;;;;;;;;;;16.70;44.10;;;;;;10166060;28;842;-76
2023/01/29 20:18:13;;;;;;;;;;;16.80;44.10;;;;;;10170473;28;902;-76
2023/01/29 20:23:08;;;;;;;;;;;16.70;43.90;;;;;;10170896;28;869;-76
2023/01/29 20:28:04;;;;;;;;;;;16.70;43.70;;;;;;10170284;28;1906;-76
2023/01/29 20:33:00;;;;;;;;;;;16.70;43.70;;;;;;10170708;28;855;-76
2023/01/29 20:37:55;;;;;;;;;;;16.70;44.20;;;;;;10169466;28;838;-76
2023/01/29 20:42:50;;;;;;;;;;;16.70;43.90;;;;;;10169620;28;794;-76
2023/01/29 20:47:46;;;;;;;;;;;16.70;43.90;;;;;;10169363;28;1910;-76
2023/01/29 20:52:41;;;;;;;;;;;16.70;44.10;;;;;;10169374;28;885;-78
2023/01/29 20:57:37;;;;;;;;;;;16.70;43.40;;;;;;10169052;28;791;-76
2023/01/29 21:02:32;;;;;;;;;;;16.60;43.70;;;;;;10168233;28;1214;-76
2023/01/29 21:07:27;;;;;;;;;;;16.60;43.90;;;;;;10169208;28;1903;-76
2023/01/29 21:12:23;;;;;;;;;;;16.60;43.40;;;;;;10168446;28;877;-76
2023/01/29 21:17:18;;;;;;;;;;;16.60;43.40;;;;;;10168242;28;1013;-76
2023/01/29 21:22:14;;;;;;;;;;;16.60;43.70;;;;;;10168107;28;784;-76
2023/01/29 21:27:09;;;;;;;;;;;16.60;43.50;;;;;;10167397;28;1899;-76
2023/01/29 21:32:04;;;;;;;;;;;16.60;43.90;;;;;;10167235;28;975;-76
2023/01/29 21:37:00;;;;;;;;;;;16.60;43.80;;;;;;10167506;28;922;-76
2023/01/29 21:47:12;;;;;;;;;;;16.60;43.60;;;;;;10167191;28;1972;-76
2023/01/29 21:52:08;;;;;;;;;;;16.60;43.70;;;;;;10167809;28;1010;-76
2023/01/29 21:57:03;;;;;;;;;;;16.60;43.20;;;;;;10166806;28;779;-76
2023/01/29 22:02:00;;;;;;;;;;;16.60;43.30;;;;;;10167682;28;1279;-76
2023/01/29 22:06:55;;;;;;;;;;;16.60;43.40;;;;;;10165706;28;1898;-76
2023/01/29 22:11:50;;;;;;;;;;;16.60;43.20;;;;;;10167068;28;838;-77
2023/01/29 22:16:46;;;;;;;;;;;16.50;43.50;;;;;;10166002;28;915;-76
2023/01/29 22:21:41;;;;;;;;;;;16.50;43.30;;;;;;10167040;28;932;-76
2023/01/29 22:26:37;;;;;;;;;;;16.60;43.20;;;;;;10166373;28;1911;-77
2023/01/29 22:31:32;;;;;;;;;;;16.60;43.80;;;;;;10164975;28;944;-77
2023/01/29 22:36:27;;;;;;;;;;;16.50;43.60;;;;;;10165117;28;861;-76
2023/01/29 22:41:23;;;;;;;;;;;16.40;43.70;;;;;;10165114;28;855;-76
2023/01/29 22:46:18;;;;;;;;;;;16.40;43.80;;;;;;10164961;28;1970;-76
2023/01/29 22:51:14;;;;;;;;;;;16.50;43.70;;;;;;10164283;28;838;-77
2023/01/29 22:56:09;;;;;;;;;;;16.50;43.50;;;;;;10165290;28;815;-76
2023/01/29 23:01:04;;;;;;;;;;;16.40;44.20;;;;;;10164354;28;1150;-77
2023/01/29 23:06:00;;;;;;;;;;;16.40;43.70;;;;;;10164587;28;1910;-77
2023/01/29 23:11:12;;;;;;;;;;;16.40;43.40;;;;;;10164339;28;872;-77
2023/01/29 23:16:07;;;;;;;;;;;16.40;43.80;;;;;;10164408;28;856;-76
2023/01/29 23:21:03;;;;;;;;;;;16.40;43.60;;;;;;10164672;28;895;-76
2023/01/29 23:31:12;;;;;;;;;;;16.50;43.30;;;;;;10163412;28;601;-76
2023/01/29 23:36:08;;;;;;;;;;;16.40;43.60;;;;;;10164372;28;937;-77
2023/01/29 23:41:03;;;;;;;;;;;16.40;43.80;;;;;;10163745;28;765;-76
2023/01/29 23:45:58;;;;;;;;;;;16.50;43.20;;;;;;10163559;28;2060;-77
2023/01/29 23:50:54;;;;;;;;;;;16.40;43.50;;;;;;10172175;28;803;-76
2023/01/29 23:55:49;;;;;;;;;;;16.50;43.20;;;;;;10170771;28;1233;-77
